sensor_id;sensor_type;location;lat;lon;timestamp;temperature;humidity
20726;DHT22;10524;48.132;8.518;2023-07-22T00:02:24;9.30;99.90
20726;DHT22;10524;48.132;8.518;2023-07-22T00:04:50;9.30;99.90
20726;DHT22;10524;48.132;8.518;2023-07-22T00:07:16;9.50;99.90
20726;DHT22;10524;48.132;8.518;2023-07-22T00:09:42;9.40;99.90
20726;DHT22;10524;48.132;8.518;2023-07-22T00:12:08;9.30;99.90
20726;DHT22;10524;48.132;8.518;2023-07-22T00:14:38;9.30;99.90
20726;DHT22;10524;48.132;8.518;2023-07-22T00:17:05;9.30;99.90
20726;DHT22;10524;48.132;8.518;2023-07-22T00:19:30;9.40;99.90
20726;DHT22;10524;48.132;8.518;2023-07-22T00:21:56;9.50;99.90
20726;DHT22;10524;48.132;8.518;2023-07-22T00:24:22;9.70;99.90
20726;DHT22;10524;48.132;8.518;2023-07-22T00:26:48;9.90;99.90
20726;DHT22;10524;48.132;8.518;2023-07-22T00:29:15;9.80;99.90
20726;DHT22;10524;48.132;8.518;2023-07-22T00:31:41;9.50;99.90
20726;DHT22;10524;48.132;8.518;2023-07-22T00:34:07;9.30;99.90
20726;DHT22;10524;48.132;8.518;2023-07-22T00:36:33;9.10;99.90
20726;DHT22;10524;48.132;8.518;2023-07-22T00:38:59;8.90;99.90
20726;DHT22;10524;48.132;8.518;2023-07-22T00:41:27;8.90;99.90
20726;DHT22;10524;48.132;8.518;2023-07-22T00:43:52;8.80;99.90
20726;DHT22;10524;48.132;8.518;2023-07-22T00:46:18;8.80;99.90
20726;DHT22;10524;48.132;8.518;2023-07-22T00:48:44;8.80;99.90
20726;DHT22;10524;48.132;8.518;2023-07-22T00:51:10;8.80;99.90
20726;DHT22;10524;48.132;8.518;2023-07-22T00:53:36;8.70;99.90
20726;DHT22;10524;48.132;8.518;2023-07-22T00:56:02;8.60;99.90
20726;DHT22;10524;48.132;8.518;2023-07-22T00:58:28;8.50;99.90
20726;DHT22;10524;48.132;8.518;2023-07-22T01:00:54;8.40;99.90
20726;DHT22;10524;48.132;8.518;2023-07-22T01:03:19;8.40;99.90
20726;DHT22;10524;48.132;8.518;2023-07-22T01:05:47;8.30;99.90
20726;DHT22;10524;48.132;8.518;2023-07-22T01:08:14;8.30;99.90
20726;DHT22;10524;48.132;8.518;2023-07-22T01:10:40;8.30;99.90
20726;DHT22;10524;48.132;8.518;2023-07-22T01:13:05;8.20;99.90
20726;DHT22;10524;48.132;8.518;2023-07-22T01:15:31;8.20;99.90
20726;DHT22;10524;48.132;8.518;2023-07-22T01:17:58;8.20;99.90
20726;DHT22;10524;48.132;8.518;2023-07-22T01:20:28;8.10;99.90
20726;DHT22;10524;48.132;8.518;2023-07-22T01:22:54;8.10;99.90
20726;DHT22;10524;48.132;8.518;2023-07-22T01:25:21;8.10;99.90
20726;DHT22;10524;48.132;8.518;2023-07-22T01:27:48;8.20;99.90
20726;DHT22;10524;48.132;8.518;2023-07-22T01:30:14;8.20;99.90
20726;DHT22;10524;48.132;8.518;2023-07-22T01:32:40;8.30;99.90
20726;DHT22;10524;48.132;8.518;2023-07-22T01:35:07;8.40;99.90
20726;DHT22;10524;48.132;8.518;2023-07-22T01:37:33;8.40;99.90
20726;DHT22;10524;48.132;8.518;2023-07-22T01:39:59;8.50;99.90
20726;DHT22;10524;48.132;8.518;2023-07-22T01:42:25;8.50;99.90
20726;DHT22;10524;48.132;8.518;2023-07-22T01:44:50;8.50;99.90
20726;DHT22;10524;48.132;8.518;2023-07-22T01:47:17;8.50;99.90
20726;DHT22;10524;48.132;8.518;2023-07-22T01:49:44;8.40;99.90
20726;DHT22;10524;48.132;8.518;2023-07-22T01:52:10;8.40;99.90
20726;DHT22;10524;48.132;8.518;2023-07-22T01:54:36;8.40;99.90
20726;DHT22;10524;48.132;8.518;2023-07-22T01:57:01;8.40;99.90
20726;DHT22;10524;48.132;8.518;2023-07-22T01:59:27;8.40;99.90
20726;DHT22;10524;48.132;8.518;2023-07-22T02:01:53;8.40;99.90
20726;DHT22;10524;48.132;8.518;2023-07-22T02:04:18;8.20;99.90
20726;DHT22;10524;48.132;8.518;2023-07-22T02:06:44;8.00;99.90
20726;DHT22;10524;48.132;8.518;2023-07-22T02:09:10;7.90;99.90
20726;DHT22;10524;48.132;8.518;2023-07-22T02:11:39;7.90;99.90
20726;DHT22;10524;48.132;8.518;2023-07-22T02:14:04;8.00;99.90
20726;DHT22;10524;48.132;8.518;2023-07-22T02:16:34;8.10;99.90
20726;DHT22;10524;48.132;8.518;2023-07-22T02:19:00;8.20;99.90
20726;DHT22;10524;48.132;8.518;2023-07-22T02:21:26;8.20;99.90
20726;DHT22;10524;48.132;8.518;2023-07-22T02:23:51;8.20;99.90
20726;DHT22;10524;48.132;8.518;2023-07-22T02:26:17;8.20;99.90
20726;DHT22;10524;48.132;8.518;2023-07-22T02:28:43;8.20;99.90
20726;DHT22;10524;48.132;8.518;2023-07-22T02:31:08;8.20;99.90
20726;DHT22;10524;48.132;8.518;2023-07-22T02:33:34;8.00;99.90
20726;DHT22;10524;48.132;8.518;2023-07-22T02:36:00;7.90;99.90
20726;DHT22;10524;48.132;8.518;2023-07-22T02:38:25;7.80;99.90
20726;DHT22;10524;48.132;8.518;2023-07-22T02:40:51;7.70;99.90
20726;DHT22;10524;48.132;8.518;2023-07-22T02:43:17;7.60;99.90
20726;DHT22;10524;48.132;8.518;2023-07-22T02:45:43;7.50;99.90
20726;DHT22;10524;48.132;8.518;2023-07-22T02:48:09;7.50;99.90
20726;DHT22;10524;48.132;8.518;2023-07-22T02:50:35;7.50;99.90
20726;DHT22;10524;48.132;8.518;2023-07-22T02:53:02;7.40;99.90
20726;DHT22;10524;48.132;8.518;2023-07-22T02:55:28;7.50;99.90
20726;DHT22;10524;48.132;8.518;2023-07-22T02:57:53;7.50;99.90
20726;DHT22;10524;48.132;8.518;2023-07-22T03:00:20;7.70;99.90
20726;DHT22;10524;48.132;8.518;2023-07-22T03:02:56;7.70;99.90
20726;DHT22;10524;48.132;8.518;2023-07-22T03:05:31;7.70;99.90
20726;DHT22;10524;48.132;8.518;2023-07-22T03:07:58;7.70;99.90
20726;DHT22;10524;48.132;8.518;2023-07-22T03:10:24;7.60;99.90
20726;DHT22;10524;48.132;8.518;2023-07-22T03:12:55;7.50;99.90
20726;DHT22;10524;48.132;8.518;2023-07-22T03:15:24;7.40;99.90
20726;DHT22;10524;48.132;8.518;2023-07-22T03:17:52;7.30;99.90
20726;DHT22;10524;48.132;8.518;2023-07-22T03:20:17;7.20;99.90
20726;DHT22;10524;48.132;8.518;2023-07-22T03:22:45;7.20;99.90
20726;DHT22;10524;48.132;8.518;2023-07-22T03:25:12;7.20;99.90
20726;DHT22;10524;48.132;8.518;2023-07-22T03:27:38;7.10;99.90
20726;DHT22;10524;48.132;8.518;2023-07-22T03:30:05;7.10;99.90
20726;DHT22;10524;48.132;8.518;2023-07-22T03:32:40;7.10;99.90
20726;DHT22;10524;48.132;8.518;2023-07-22T03:35:07;7.20;99.90
20726;DHT22;10524;48.132;8.518;2023-07-22T03:37:34;7.40;99.90
20726;DHT22;10524;48.132;8.518;2023-07-22T03:40:02;7.40;99.90
20726;DHT22;10524;48.132;8.518;2023-07-22T03:42:29;7.40;99.90
20726;DHT22;10524;48.132;8.518;2023-07-22T03:44:54;7.30;99.90
20726;DHT22;10524;48.132;8.518;2023-07-22T03:47:20;7.20;99.90
20726;DHT22;10524;48.132;8.518;2023-07-22T03:49:46;7.20;99.90
20726;DHT22;10524;48.132;8.518;2023-07-22T03:52:11;7.20;99.90
20726;DHT22;10524;48.132;8.518;2023-07-22T03:54:39;7.30;99.90
20726;DHT22;10524;48.132;8.518;2023-07-22T03:57:05;7.30;99.90
20726;DHT22;10524;48.132;8.518;2023-07-22T03:59:31;7.30;99.90
20726;DHT22;10524;48.132;8.518;2023-07-22T04:01:57;7.20;99.90
20726;DHT22;10524;48.132;8.518;2023-07-22T04:04:23;7.30;99.90
20726;DHT22;10524;48.132;8.518;2023-07-22T04:06:48;7.40;99.90
20726;DHT22;10524;48.132;8.518;2023-07-22T04:09:14;7.50;99.90
20726;DHT22;10524;48.132;8.518;2023-07-22T04:11:40;7.60;99.90
20726;DHT22;10524;48.132;8.518;2023-07-22T04:14:05;7.70;99.90
20726;DHT22;10524;48.132;8.518;2023-07-22T04:16:31;7.90;99.90
20726;DHT22;10524;48.132;8.518;2023-07-22T04:18:57;8.10;99.90
20726;DHT22;10524;48.132;8.518;2023-07-22T04:21:23;8.40;99.90
20726;DHT22;10524;48.132;8.518;2023-07-22T04:23:48;8.60;99.90
20726;DHT22;10524;48.132;8.518;2023-07-22T04:26:14;8.90;99.90
20726;DHT22;10524;48.132;8.518;2023-07-22T04:28:40;9.20;99.90
20726;DHT22;10524;48.132;8.518;2023-07-22T04:31:06;9.60;99.90
20726;DHT22;10524;48.132;8.518;2023-07-22T04:33:31;9.90;99.90
20726;DHT22;10524;48.132;8.518;2023-07-22T04:35:59;10.40;99.90
20726;DHT22;10524;48.132;8.518;2023-07-22T04:38:26;10.80;99.90
20726;DHT22;10524;48.132;8.518;2023-07-22T04:40:52;11.10;99.90
20726;DHT22;10524;48.132;8.518;2023-07-22T04:43:17;11.60;99.90
20726;DHT22;10524;48.132;8.518;2023-07-22T04:45:47;12.10;99.90
20726;DHT22;10524;48.132;8.518;2023-07-22T04:48:17;12.50;99.90
20726;DHT22;10524;48.132;8.518;2023-07-22T04:50:43;12.90;99.90
20726;DHT22;10524;48.132;8.518;2023-07-22T04:53:11;13.20;99.90
20726;DHT22;10524;48.132;8.518;2023-07-22T04:55:39;13.60;99.90
20726;DHT22;10524;48.132;8.518;2023-07-22T04:58:04;14.00;99.90
20726;DHT22;10524;48.132;8.518;2023-07-22T05:00:30;14.40;99.90
20726;DHT22;10524;48.132;8.518;2023-07-22T05:02:56;15.00;99.90
20726;DHT22;10524;48.132;8.518;2023-07-22T05:05:22;15.50;99.90
20726;DHT22;10524;48.132;8.518;2023-07-22T05:07:47;15.80;99.90
20726;DHT22;10524;48.132;8.518;2023-07-22T05:10:16;16.20;99.90
20726;DHT22;10524;48.132;8.518;2023-07-22T05:12:42;16.70;99.90
20726;DHT22;10524;48.132;8.518;2023-07-22T05:15:10;17.30;99.90
20726;DHT22;10524;48.132;8.518;2023-07-22T05:17:35;17.80;99.90
20726;DHT22;10524;48.132;8.518;2023-07-22T05:20:01;17.90;99.90
20726;DHT22;10524;48.132;8.518;2023-07-22T05:22:27;18.40;99.90
20726;DHT22;10524;48.132;8.518;2023-07-22T05:24:53;19.00;99.90
20726;DHT22;10524;48.132;8.518;2023-07-22T05:27:19;19.40;99.90
20726;DHT22;10524;48.132;8.518;2023-07-22T05:29:44;19.60;99.90
20726;DHT22;10524;48.132;8.518;2023-07-22T05:32:11;19.00;99.90
20726;DHT22;10524;48.132;8.518;2023-07-22T05:34:37;18.60;99.90
20726;DHT22;10524;48.132;8.518;2023-07-22T05:37:02;19.00;99.90
20726;DHT22;10524;48.132;8.518;2023-07-22T05:39:28;19.10;99.90
20726;DHT22;10524;48.132;8.518;2023-07-22T05:41:54;19.70;99.90
20726;DHT22;10524;48.132;8.518;2023-07-22T05:44:20;20.50;99.90
20726;DHT22;10524;48.132;8.518;2023-07-22T05:46:45;21.50;99.90
20726;DHT22;10524;48.132;8.518;2023-07-22T05:49:11;21.20;99.90
20726;DHT22;10524;48.132;8.518;2023-07-22T05:51:37;20.50;99.90
20726;DHT22;10524;48.132;8.518;2023-07-22T05:54:03;20.40;99.90
20726;DHT22;10524;48.132;8.518;2023-07-22T05:56:28;20.90;99.90
20726;DHT22;10524;48.132;8.518;2023-07-22T05:58:54;21.00;99.90
20726;DHT22;10524;48.132;8.518;2023-07-22T06:01:20;20.90;99.90
20726;DHT22;10524;48.132;8.518;2023-07-22T06:03:46;21.00;99.90
20726;DHT22;10524;48.132;8.518;2023-07-22T06:06:11;21.10;99.90
20726;DHT22;10524;48.132;8.518;2023-07-22T06:08:37;21.20;99.90
20726;DHT22;10524;48.132;8.518;2023-07-22T06:11:03;21.30;99.90
20726;DHT22;10524;48.132;8.518;2023-07-22T06:13:28;21.40;99.90
20726;DHT22;10524;48.132;8.518;2023-07-22T06:15:54;21.20;99.90
20726;DHT22;10524;48.132;8.518;2023-07-22T06:18:20;21.10;99.90
20726;DHT22;10524;48.132;8.518;2023-07-22T06:20:46;21.50;99.90
20726;DHT22;10524;48.132;8.518;2023-07-22T06:23:12;22.10;99.90
20726;DHT22;10524;48.132;8.518;2023-07-22T06:25:37;22.30;99.90
20726;DHT22;10524;48.132;8.518;2023-07-22T06:28:04;22.20;99.90
20726;DHT22;10524;48.132;8.518;2023-07-22T06:30:29;22.30;99.90
20726;DHT22;10524;48.132;8.518;2023-07-22T06:32:55;22.90;99.90
20726;DHT22;10524;48.132;8.518;2023-07-22T06:35:21;23.60;99.90
20726;DHT22;10524;48.132;8.518;2023-07-22T06:37:47;24.20;99.90
20726;DHT22;10524;48.132;8.518;2023-07-22T06:40:13;24.80;99.90
20726;DHT22;10524;48.132;8.518;2023-07-22T06:42:39;25.10;99.90
20726;DHT22;10524;48.132;8.518;2023-07-22T06:45:05;25.40;99.90
20726;DHT22;10524;48.132;8.518;2023-07-22T06:47:30;25.60;99.90
20726;DHT22;10524;48.132;8.518;2023-07-22T06:49:56;26.40;99.90
20726;DHT22;10524;48.132;8.518;2023-07-22T06:52:22;26.50;99.90
20726;DHT22;10524;48.132;8.518;2023-07-22T06:54:48;25.80;99.90
20726;DHT22;10524;48.132;8.518;2023-07-22T06:57:14;26.40;99.90
20726;DHT22;10524;48.132;8.518;2023-07-22T06:59:39;26.50;99.90
20726;DHT22;10524;48.132;8.518;2023-07-22T07:02:05;26.60;99.90
20726;DHT22;10524;48.132;8.518;2023-07-22T07:04:31;26.80;99.90
20726;DHT22;10524;48.132;8.518;2023-07-22T07:06:57;27.00;99.90
20726;DHT22;10524;48.132;8.518;2023-07-22T07:09:23;27.20;99.90
20726;DHT22;10524;48.132;8.518;2023-07-22T07:11:48;28.30;99.90
20726;DHT22;10524;48.132;8.518;2023-07-22T07:14:14;28.00;99.90
20726;DHT22;10524;48.132;8.518;2023-07-22T07:16:40;27.70;99.90
20726;DHT22;10524;48.132;8.518;2023-07-22T07:19:05;27.80;99.90
20726;DHT22;10524;48.132;8.518;2023-07-22T07:21:32;27.20;99.90
20726;DHT22;10524;48.132;8.518;2023-07-22T07:23:57;26.70;99.90
20726;DHT22;10524;48.132;8.518;2023-07-22T07:26:23;26.60;99.90
20726;DHT22;10524;48.132;8.518;2023-07-22T07:28:50;26.80;99.90
20726;DHT22;10524;48.132;8.518;2023-07-22T07:31:16;27.20;99.90
20726;DHT22;10524;48.132;8.518;2023-07-22T07:33:42;27.00;99.90
20726;DHT22;10524;48.132;8.518;2023-07-22T07:36:08;28.00;99.90
20726;DHT22;10524;48.132;8.518;2023-07-22T07:38:34;30.00;98.20
20726;DHT22;10524;48.132;8.518;2023-07-22T07:41:04;28.90;97.50
20726;DHT22;10524;48.132;8.518;2023-07-22T07:43:34;27.60;98.00
20726;DHT22;10524;48.132;8.518;2023-07-22T07:46:23;26.10;98.90
20726;DHT22;10524;48.132;8.518;2023-07-22T07:48:53;25.50;99.80
20726;DHT22;10524;48.132;8.518;2023-07-22T07:51:21;25.40;99.40
20726;DHT22;10524;48.132;8.518;2023-07-22T07:53:47;24.60;99.90
20726;DHT22;10524;48.132;8.518;2023-07-22T07:56:14;24.10;99.90
20726;DHT22;10524;48.132;8.518;2023-07-22T07:58:40;25.50;99.90
20726;DHT22;10524;48.132;8.518;2023-07-22T08:01:06;25.00;99.90
20726;DHT22;10524;48.132;8.518;2023-07-22T08:03:33;24.70;99.90
20726;DHT22;10524;48.132;8.518;2023-07-22T08:06:00;24.80;99.90
20726;DHT22;10524;48.132;8.518;2023-07-22T08:08:26;25.30;99.90
20726;DHT22;10524;48.132;8.518;2023-07-22T08:11:01;25.30;99.90
20726;DHT22;10524;48.132;8.518;2023-07-22T08:13:28;25.20;99.90
20726;DHT22;10524;48.132;8.518;2023-07-22T08:15:59;24.00;99.90
20726;DHT22;10524;48.132;8.518;2023-07-22T08:18:25;23.60;99.90
20726;DHT22;10524;48.132;8.518;2023-07-22T08:20:55;25.30;99.90
20726;DHT22;10524;48.132;8.518;2023-07-22T08:23:21;28.00;98.20
20726;DHT22;10524;48.132;8.518;2023-07-22T08:25:47;29.70;96.70
20726;DHT22;10524;48.132;8.518;2023-07-22T08:28:13;30.00;95.70
20726;DHT22;10524;48.132;8.518;2023-07-22T08:30:39;30.40;95.40
20726;DHT22;10524;48.132;8.518;2023-07-22T08:33:09;31.00;95.40
20726;DHT22;10524;48.132;8.518;2023-07-22T08:35:37;32.40;94.80
20726;DHT22;10524;48.132;8.518;2023-07-22T08:38:03;30.40;95.10
20726;DHT22;10524;48.132;8.518;2023-07-22T08:40:36;28.90;94.80
20726;DHT22;10524;48.132;8.518;2023-07-22T08:43:04;28.80;95.00
20726;DHT22;10524;48.132;8.518;2023-07-22T08:45:34;28.70;95.30
20726;DHT22;10524;48.132;8.518;2023-07-22T08:48:03;30.00;94.90
20726;DHT22;10524;48.132;8.518;2023-07-22T08:53:01;31.10;93.80
20726;DHT22;10524;48.132;8.518;2023-07-22T08:55:27;31.40;93.60
20726;DHT22;10524;48.132;8.518;2023-07-22T08:57:54;29.80;93.20
20726;DHT22;10524;48.132;8.518;2023-07-22T09:00:20;29.20;94.30
20726;DHT22;10524;48.132;8.518;2023-07-22T09:02:46;30.20;94.00
20726;DHT22;10524;48.132;8.518;2023-07-22T09:05:13;31.20;93.50
20726;DHT22;10524;48.132;8.518;2023-07-22T09:07:39;32.20;93.30
20726;DHT22;10524;48.132;8.518;2023-07-22T09:10:08;32.20;92.90
20726;DHT22;10524;48.132;8.518;2023-07-22T09:12:34;32.20;92.40
20726;DHT22;10524;48.132;8.518;2023-07-22T09:15:11;32.30;92.50
20726;DHT22;10524;48.132;8.518;2023-07-22T09:17:39;29.10;93.70
20726;DHT22;10524;48.132;8.518;2023-07-22T09:20:05;27.90;94.70
20726;DHT22;10524;48.132;8.518;2023-07-22T09:22:32;28.40;94.80
20726;DHT22;10524;48.132;8.518;2023-07-22T09:25:23;29.10;94.00
20726;DHT22;10524;48.132;8.518;2023-07-22T09:27:51;28.20;93.70
20726;DHT22;10524;48.132;8.518;2023-07-22T09:30:26;29.00;93.60
20726;DHT22;10524;48.132;8.518;2023-07-22T09:32:56;27.60;93.60
20726;DHT22;10524;48.132;8.518;2023-07-22T09:35:24;27.30;94.10
20726;DHT22;10524;48.132;8.518;2023-07-22T09:37:50;27.50;94.50
20726;DHT22;10524;48.132;8.518;2023-07-22T09:40:24;29.50;94.00
20726;DHT22;10524;48.132;8.518;2023-07-22T09:42:55;29.60;92.60
20726;DHT22;10524;48.132;8.518;2023-07-22T09:45:25;30.80;92.60
20726;DHT22;10524;48.132;8.518;2023-07-22T09:47:52;31.10;91.50
20726;DHT22;10524;48.132;8.518;2023-07-22T09:50:27;29.60;91.60
20726;DHT22;10524;48.132;8.518;2023-07-22T09:52:54;28.10;92.40
20726;DHT22;10524;48.132;8.518;2023-07-22T09:55:25;28.10;93.10
20726;DHT22;10524;48.132;8.518;2023-07-22T09:57:55;27.60;93.30
20726;DHT22;10524;48.132;8.518;2023-07-22T10:00:24;27.40;93.40
20726;DHT22;10524;48.132;8.518;2023-07-22T10:02:52;27.10;94.30
20726;DHT22;10524;48.132;8.518;2023-07-22T10:05:19;26.70;95.10
20726;DHT22;10524;48.132;8.518;2023-07-22T10:07:50;27.10;95.10
20726;DHT22;10524;48.132;8.518;2023-07-22T10:10:37;27.90;94.20
20726;DHT22;10524;48.132;8.518;2023-07-22T10:13:03;27.40;94.40
20726;DHT22;10524;48.132;8.518;2023-07-22T10:15:50;26.90;94.70
20726;DHT22;10524;48.132;8.518;2023-07-22T10:18:16;25.80;95.50
20726;DHT22;10524;48.132;8.518;2023-07-22T10:20:43;27.30;95.50
20726;DHT22;10524;48.132;8.518;2023-07-22T10:23:09;28.60;94.80
20726;DHT22;10524;48.132;8.518;2023-07-22T10:25:39;28.40;94.60
20726;DHT22;10524;48.132;8.518;2023-07-22T10:28:06;26.60;94.70
20726;DHT22;10524;48.132;8.518;2023-07-22T10:30:33;25.70;95.40
20726;DHT22;10524;48.132;8.518;2023-07-22T10:32:59;25.30;95.90
20726;DHT22;10524;48.132;8.518;2023-07-22T10:41:14;30.90;92.00
20726;DHT22;10524;48.132;8.518;2023-07-22T10:43:42;30.80;92.10
20726;DHT22;10524;48.132;8.518;2023-07-22T10:46:19;32.90;90.90
20726;DHT22;10524;48.132;8.518;2023-07-22T10:49:12;33.50;90.40
20726;DHT22;10524;48.132;8.518;2023-07-22T10:51:38;33.40;87.40
20726;DHT22;10524;48.132;8.518;2023-07-22T10:54:14;33.20;88.00
20726;DHT22;10524;48.132;8.518;2023-07-22T10:56:43;32.40;89.60
20726;DHT22;10524;48.132;8.518;2023-07-22T10:59:11;31.60;89.70
20726;DHT22;10524;48.132;8.518;2023-07-22T11:01:38;33.10;90.90
20726;DHT22;10524;48.132;8.518;2023-07-22T11:14:34;33.50;85.30
20726;DHT22;10524;48.132;8.518;2023-07-22T11:17:02;33.50;84.90
20726;DHT22;10524;48.132;8.518;2023-07-22T11:19:32;34.00;82.00
20726;DHT22;10524;48.132;8.518;2023-07-22T11:21:58;32.70;83.30
20726;DHT22;10524;48.132;8.518;2023-07-22T11:24:24;33.30;83.90
20726;DHT22;10524;48.132;8.518;2023-07-22T11:26:52;34.00;83.80
20726;DHT22;10524;48.132;8.518;2023-07-22T11:29:18;33.80;83.40
20726;DHT22;10524;48.132;8.518;2023-07-22T11:31:46;33.00;84.40
20726;DHT22;10524;48.132;8.518;2023-07-22T11:34:14;33.20;85.70
20726;DHT22;10524;48.132;8.518;2023-07-22T11:36:40;32.90;84.50
20726;DHT22;10524;48.132;8.518;2023-07-22T11:39:11;32.40;82.60
20726;DHT22;10524;48.132;8.518;2023-07-22T11:41:38;31.90;84.50
20726;DHT22;10524;48.132;8.518;2023-07-22T11:44:07;32.30;84.50
20726;DHT22;10524;48.132;8.518;2023-07-22T11:46:51;31.90;84.70
20726;DHT22;10524;48.132;8.518;2023-07-22T11:49:24;31.20;86.20
20726;DHT22;10524;48.132;8.518;2023-07-22T11:51:53;29.40;89.20
20726;DHT22;10524;48.132;8.518;2023-07-22T11:54:21;29.20;90.10
20726;DHT22;10524;48.132;8.518;2023-07-22T11:56:47;31.30;89.10
20726;DHT22;10524;48.132;8.518;2023-07-22T11:59:13;33.70;87.70
20726;DHT22;10524;48.132;8.518;2023-07-22T12:01:39;32.40;87.20
20726;DHT22;10524;48.132;8.518;2023-07-22T12:04:12;30.30;88.90
20726;DHT22;10524;48.132;8.518;2023-07-22T12:06:38;29.90;90.00
20726;DHT22;10524;48.132;8.518;2023-07-22T12:09:04;29.50;90.80
20726;DHT22;10524;48.132;8.518;2023-07-22T12:11:32;29.50;90.90
20726;DHT22;10524;48.132;8.518;2023-07-22T12:14:12;30.60;90.40
20726;DHT22;10524;48.132;8.518;2023-07-22T12:16:40;29.20;90.30
20726;DHT22;10524;48.132;8.518;2023-07-22T12:19:07;30.00;90.40
20726;DHT22;10524;48.132;8.518;2023-07-22T12:21:33;31.50;88.70
20726;DHT22;10524;48.132;8.518;2023-07-22T12:24:01;32.60;87.40
20726;DHT22;10524;48.132;8.518;2023-07-22T12:26:27;33.00;86.90
20726;DHT22;10524;48.132;8.518;2023-07-22T12:28:53;32.70;86.50
20726;DHT22;10524;48.132;8.518;2023-07-22T12:31:19;31.00;86.90
20726;DHT22;10524;48.132;8.518;2023-07-22T12:33:44;28.90;88.90
20726;DHT22;10524;48.132;8.518;2023-07-22T12:36:11;29.90;90.10
20726;DHT22;10524;48.132;8.518;2023-07-22T12:38:36;31.80;88.10
20726;DHT22;10524;48.132;8.518;2023-07-22T12:41:02;32.00;87.10
20726;DHT22;10524;48.132;8.518;2023-07-22T12:43:28;31.80;86.90
20726;DHT22;10524;48.132;8.518;2023-07-22T12:45:54;31.80;86.80
20726;DHT22;10524;48.132;8.518;2023-07-22T12:48:19;32.20;85.30
20726;DHT22;10524;48.132;8.518;2023-07-22T12:50:45;32.40;84.50
20726;DHT22;10524;48.132;8.518;2023-07-22T12:53:13;32.50;83.30
20726;DHT22;10524;48.132;8.518;2023-07-22T12:55:39;33.00;83.10
20726;DHT22;10524;48.132;8.518;2023-07-22T12:58:05;33.00;83.80
20726;DHT22;10524;48.132;8.518;2023-07-22T13:00:30;30.60;84.10
20726;DHT22;10524;48.132;8.518;2023-07-22T13:02:56;29.70;86.10
20726;DHT22;10524;48.132;8.518;2023-07-22T13:05:23;29.50;85.90
20726;DHT22;10524;48.132;8.518;2023-07-22T13:07:48;31.20;85.50
20726;DHT22;10524;48.132;8.518;2023-07-22T13:10:15;31.40;84.80
20726;DHT22;10524;48.132;8.518;2023-07-22T13:12:43;32.40;84.60
20726;DHT22;10524;48.132;8.518;2023-07-22T13:15:09;32.20;84.00
20726;DHT22;10524;48.132;8.518;2023-07-22T13:17:35;30.80;84.00
20726;DHT22;10524;48.132;8.518;2023-07-22T13:20:01;29.60;85.70
20726;DHT22;10524;48.132;8.518;2023-07-22T13:22:26;28.80;86.60
20726;DHT22;10524;48.132;8.518;2023-07-22T13:24:52;29.00;87.90
20726;DHT22;10524;48.132;8.518;2023-07-22T13:27:18;29.10;87.30
20726;DHT22;10524;48.132;8.518;2023-07-22T13:29:44;30.10;86.60
20726;DHT22;10524;48.132;8.518;2023-07-22T13:32:11;31.30;86.30
20726;DHT22;10524;48.132;8.518;2023-07-22T13:34:36;31.90;85.80
20726;DHT22;10524;48.132;8.518;2023-07-22T13:37:02;32.10;85.40
20726;DHT22;10524;48.132;8.518;2023-07-22T13:39:28;32.00;85.70
20726;DHT22;10524;48.132;8.518;2023-07-22T13:41:54;31.90;85.30
20726;DHT22;10524;48.132;8.518;2023-07-22T13:44:19;32.40;85.30
20726;DHT22;10524;48.132;8.518;2023-07-22T13:46:45;32.00;85.50
20726;DHT22;10524;48.132;8.518;2023-07-22T13:49:11;32.90;84.20
20726;DHT22;10524;48.132;8.518;2023-07-22T13:51:36;32.70;83.80
20726;DHT22;10524;48.132;8.518;2023-07-22T13:54:02;30.80;85.20
20726;DHT22;10524;48.132;8.518;2023-07-22T13:56:28;28.50;89.70
20726;DHT22;10524;48.132;8.518;2023-07-22T13:58:54;27.40;91.00
20726;DHT22;10524;48.132;8.518;2023-07-22T14:01:20;27.90;91.10
20726;DHT22;10524;48.132;8.518;2023-07-22T14:03:46;28.20;90.80
20726;DHT22;10524;48.132;8.518;2023-07-22T14:06:12;28.20;90.60
20726;DHT22;10524;48.132;8.518;2023-07-22T14:08:37;27.40;90.70
20726;DHT22;10524;48.132;8.518;2023-07-22T14:11:05;26.30;91.20
20726;DHT22;10524;48.132;8.518;2023-07-22T14:13:30;26.80;91.40
20726;DHT22;10524;48.132;8.518;2023-07-22T14:15:56;27.70;90.70
20726;DHT22;10524;48.132;8.518;2023-07-22T14:18:21;27.60;90.20
20726;DHT22;10524;48.132;8.518;2023-07-22T14:20:47;26.50;90.60
20726;DHT22;10524;48.132;8.518;2023-07-22T14:23:13;26.00;91.40
20726;DHT22;10524;48.132;8.518;2023-07-22T14:25:39;26.00;91.80
20726;DHT22;10524;48.132;8.518;2023-07-22T14:28:05;26.50;91.60
20726;DHT22;10524;48.132;8.518;2023-07-22T14:30:31;27.70;90.90
20726;DHT22;10524;48.132;8.518;2023-07-22T14:32:57;27.90;90.60
20726;DHT22;10524;48.132;8.518;2023-07-22T14:35:23;28.00;90.30
20726;DHT22;10524;48.132;8.518;2023-07-22T14:37:49;28.40;89.40
20726;DHT22;10524;48.132;8.518;2023-07-22T14:40:16;28.00;90.00
20726;DHT22;10524;48.132;8.518;2023-07-22T14:42:42;28.30;90.40
20726;DHT22;10524;48.132;8.518;2023-07-22T14:45:09;28.90;90.00
20726;DHT22;10524;48.132;8.518;2023-07-22T14:47:34;28.30;90.10
20726;DHT22;10524;48.132;8.518;2023-07-22T14:50:01;28.40;90.70
20726;DHT22;10524;48.132;8.518;2023-07-22T14:52:26;29.20;89.70
20726;DHT22;10524;48.132;8.518;2023-07-22T14:54:52;29.40;88.40
20726;DHT22;10524;48.132;8.518;2023-07-22T14:57:18;29.00;90.00
20726;DHT22;10524;48.132;8.518;2023-07-22T14:59:44;29.10;90.20
20726;DHT22;10524;48.132;8.518;2023-07-22T15:02:10;29.60;90.10
20726;DHT22;10524;48.132;8.518;2023-07-22T15:04:36;29.60;89.30
20726;DHT22;10524;48.132;8.518;2023-07-22T15:07:02;28.50;90.30
20726;DHT22;10524;48.132;8.518;2023-07-22T15:09:28;27.60;90.50
20726;DHT22;10524;48.132;8.518;2023-07-22T15:11:54;26.80;91.30
20726;DHT22;10524;48.132;8.518;2023-07-22T15:14:19;26.00;91.50
20726;DHT22;10524;48.132;8.518;2023-07-22T15:16:45;26.60;91.30
20726;DHT22;10524;48.132;8.518;2023-07-22T15:19:11;27.90;90.50
20726;DHT22;10524;48.132;8.518;2023-07-22T15:21:37;28.20;90.00
20726;DHT22;10524;48.132;8.518;2023-07-22T15:24:03;28.20;89.30
20726;DHT22;10524;48.132;8.518;2023-07-22T15:26:28;28.40;87.80
20726;DHT22;10524;48.132;8.518;2023-07-22T15:28:54;27.90;89.00
20726;DHT22;10524;48.132;8.518;2023-07-22T15:31:20;28.20;87.80
20726;DHT22;10524;48.132;8.518;2023-07-22T15:33:49;28.50;87.70
20726;DHT22;10524;48.132;8.518;2023-07-22T15:36:15;29.00;87.50
20726;DHT22;10524;48.132;8.518;2023-07-22T15:38:41;29.30;86.70
20726;DHT22;10524;48.132;8.518;2023-07-22T15:41:07;28.60;85.40
20726;DHT22;10524;48.132;8.518;2023-07-22T15:43:33;28.10;86.40
20726;DHT22;10524;48.132;8.518;2023-07-22T15:45:58;28.30;86.60
20726;DHT22;10524;48.132;8.518;2023-07-22T15:48:24;28.50;86.20
20726;DHT22;10524;48.132;8.518;2023-07-22T15:50:50;28.30;87.10
20726;DHT22;10524;48.132;8.518;2023-07-22T15:53:16;28.00;87.30